Deerfield Twp, New Jersey
Current Conditions -  °F | °C
As of 2:54 AM on Saturday 25 Oct 2014 (Local Time) from KMIV Reporting Station
Clear Clear  
Wind Chill: 44°   Ceiling: Unl
Heat Index: 47°   Visibility: 10mi
Dew Point: 40°   Wind: 7mph
Humidity: 77%   Direction: 280°W
Pressure: 29.91"   Gusts: NA
Location:  39.4433°N, 75.2554°W
Report Text: KMIV 250654Z AUTO 28006KT 10SM CLR 08/04 A2991 RMK AO2 SLP125 T00830044
Loading
Personal Weather Stations






























Interactive Weather Map New forecast layout! Learn more

10-Day Weather Forecast

Advertisements
Track Severe Weather on mobile